Iraklis — D5GC7 — position and weather

sailwx.info

Track history (hours):
 
Tides and Currents Weather Stations Pressure Air Temp Water Temp Dewpoint Dewpoint Depression Visibility Wind Speed Wind Dir Waves Ship Positions

Iraklis

Last reported at 2017-Sep-24 18:14 UTC. Time now 2017-Sep-24 19:24 UTC.
Position N 53°54' E 007°51'.

Length 180 m; draft 9.3 m.

Type: Cargo ship. MMSI: 636016421.

Date/timePositionNaut miles runAvg speedWind from/ knotsBaromVisibWave heightAir tempDewpointWater temp
2017-Sep-24 18:14N 53°54' E 007°51'0 0.0
2017-Sep-24 17:59N 53°54' E 007°51'0 0.0
2017-Sep-24 17:14N 53°54' E 007°51'0 0.0
2017-Sep-24 16:59N 53°54' E 007°51'0 0.0
2017-Sep-24 16:26N 53°54' E 007°51'0 0.0
2017-Sep-24 15:59N 53°54' E 007°51'0 0.0
2017-Sep-24 15:29N 53°54' E 007°51'0 0.0
2017-Sep-24 14:56N 53°54' E 007°51'0 0.2
2017-Sep-24 14:11N 53°54' E 007°51'0 0.2
2017-Sep-24 13:41N 53°54' E 007°51'0 0.1
2017-Sep-24 13:26N 53°54' E 007°51'0 0.0
2017-Sep-24 12:56N 53°54' E 007°51'0 0.0
2017-Sep-24 12:17N 53°54' E 007°51'0 0.0
2017-Sep-24 07:08N 53°54' E 007°51'0 0.0
2017-Sep-24 06:59N 53°54' E 007°51'0 0.0
2017-Sep-24 06:29N 53°54' E 007°51'0 0.0
2017-Sep-24 05:59N 53°54' E 007°51'0 0.0
2017-Sep-24 05:26N 53°54' E 007°51'0 0.0
2017-Sep-24 04:59N 53°54' E 007°51'0 0.0
2017-Sep-24 04:26N 53°54' E 007°51'0 0.0
2017-Sep-24 03:56N 53°54' E 007°51'0 0.0
2017-Sep-24 03:17N 53°54' E 007°51'0 0.0
2017-Sep-24 02:59N 53°54' E 007°51'0 0.0
2017-Sep-24 02:29N 53°54' E 007°51'0 0.1
2017-Sep-24 01:59N 53°54' E 007°51'0 0.3
2017-Sep-24 01:29N 53°54' E 007°51'0 0.1
2017-Sep-24 00:32N 53°54' E 007°51'0 0.1
2017-Sep-24 00:26N 53°54' E 007°51'0 0.0
2017-Sep-23 23:59N 53°54' E 007°51'0 0.0
2017-Sep-23 23:29N 53°54' E 007°51'0 0.0
2017-Sep-23 22:59N 53°54' E 007°51'0 0.0
2017-Sep-23 22:29N 53°54' E 007°51'0 0.0
2017-Sep-23 21:59N 53°54' E 007°51'0 0.0
2017-Sep-23 21:20N 53°54' E 007°51'0 0.0
2017-Sep-23 20:53N 53°54' E 007°51'0 0.0
2017-Sep-22 01:59N 53°54' E 007°51'0 0.1
2017-Sep-22 01:29N 53°54' E 007°51'0 0.1
2017-Sep-22 00:20N 53°54' E 007°51'0 0.1
2017-Sep-21 23:08N 53°54' E 007°51'0 0.0
2017-Sep-21 19:44N 53°54' E 007°51'0 0.4
2017-Sep-21 19:29N 53°54' E 007°51'0 0.3
2017-Sep-21 18:50N 53°54' E 007°51'0 0.1
2017-Sep-21 18:29N 53°54' E 007°51'0 0.0
2017-Sep-21 17:56N 53°54' E 007°51'0 0.0
2017-Sep-21 17:26N 53°54' E 007°51'0 0.0
2017-Sep-21 16:59N 53°54' E 007°51'0 0.0
2017-Sep-21 16:29N 53°54' E 007°51'0 0.0
2017-Sep-21 15:59N 53°54' E 007°51'0 0.0
2017-Sep-21 15:20N 53°54' E 007°51'0 0.0
2017-Sep-21 14:47N 53°54' E 007°51'0 0.0
2017-Sep-21 14:26N 53°54' E 007°51'0 0.0
2017-Sep-21 13:56N 53°54' E 007°51'0 0.1
2017-Sep-21 10:50N 53°54' E 007°51'0 0.0
2017-Sep-21 10:29N 53°54' E 007°51'0 0.0
2017-Sep-21 09:20N 53°54' E 007°51'0 0.3
2017-Sep-21 09:00N 53°54' E 007°51'2 3.4
2017-Sep-21 08:30N 53°53' E 007°49'3 6.8
2017-Sep-21 08:00N 53°53' E 007°43'4 7.7
2017-Sep-21 07:30N 53°54' E 007°36'6 7.7
2017-Sep-21 06:43N 53°54' E 007°26'2 8.9
2017-Sep-21 06:29N 53°53' E 007°23'6 9.7
2017-Sep-21 05:55N 53°52' E 007°14'510.3
2017-Sep-21 05:27N 53°51' E 007°06'6 9.9
2017-Sep-21 04:52N 53°49' E 006°56'5211.5
2017-Sep-21 00:19N 53°35' E 005°32'412.1
2017-Sep-20 23:59N 53°34' E 005°25'612.0
2017-Sep-20 23:30N 53°32' E 005°16'612.6
2017-Sep-20 23:00N 53°30' E 005°06'612.8
2017-Sep-20 22:30N 53°28' E 004°56'612.7
2017-Sep-20 22:00N 53°26' E 004°46'1412.4
2017-Sep-20 20:53N 53°14' E 004°34'512.8
2017-Sep-20 20:28N 53°09' E 004°30'1312.8
2017-Sep-20 19:27N 52°57' E 004°20'713.1
2017-Sep-20 18:53N 52°51' E 004°14'513.3
2017-Sep-20 18:29N 52°47' E 004°08'713.6
2017-Sep-20 17:59N 52°42' E 004°01'1313.8
2017-Sep-20 17:05N 52°32' E 003°47'114.0
2017-Sep-20 16:59N 52°31' E 003°45'714.1
2017-Sep-20 16:29N 52°26' E 003°38'6014.8
2017-Sep-20 12:23N 51°42' E 002°30'1814.4
2017-Sep-20 11:08N 51°29' E 002°11'213.9
2017-Sep-20 11:00N 51°27' E 002°09'713.7
2017-Sep-20 10:30N 51°22' E 002°02'713.1
2017-Sep-20 10:00N 51°17' E 001°55'612.4
2017-Sep-20 09:30N 51°13' E 001°48'611.3
2017-Sep-20 09:00N 51°08' E 001°43'510.2
2017-Sep-20 08:30N 51°04' E 001°38'5 9.1
2017-Sep-20 08:00N 51°01' E 001°33'5 9.4
2017-Sep-20 07:30N 50°57' E 001°28'53 9.8
2017-Sep-20 02:04N 50°24' E 000°23'411.2
2017-Sep-20 01:44N 50°23' E 000°18'311.2
2017-Sep-20 01:30N 50°22' E 000°14'811.4
2017-Sep-20 00:49N 50°20' E 000°02'3712.5
2017-Sep-19 21:51N 50°10' W 000°54'514.8
2017-Sep-19 21:30N 50°08' W 001°02'815.4
2017-Sep-19 21:00N 50°07' W 001°13'815.9
2017-Sep-19 20:30N 50°04' W 001°25'816.4
2017-Sep-19 20:00N 50°02' W 001°38'816.8
2017-Sep-19 19:31N 50°00' W 001°50'3615.8
2017-Sep-19 17:16N 49°51' W 002°44'414.4
2017-Sep-19 17:00N 49°50' W 002°49'914.0
2017-Sep-19 16:21N 49°47' W 003°02'513.9
2017-Sep-19 16:00N 49°45' W 003°09'713.8
2017-Sep-19 15:30N 49°42' W 003°19'713.4
2017-Sep-19 14:58N 49°39' W 003°29'1013.1
2017-Sep-19 14:12N 49°36' W 003°44'2412.6
2017-Sep-19 12:20N 49°27' W 004°18'3111.8
2017-Sep-19 09:41N 49°15' W 005°02'  
2017-Sep-15 20:25N 39°48' W 027°29'613.4
2017-Sep-15 20:00N 39°45' W 027°35'813.4
2017-Sep-15 19:26N 39°40' W 027°43'613.3
2017-Sep-15 19:00N 39°37' W 027°49'713.4
2017-Sep-15 18:30N 39°33' W 027°56'713.2
2017-Sep-15 18:00N 39°29' W 028°03'613.1
2017-Sep-15 17:30N 39°25' W 028°09'713.0
2017-Sep-15 17:00N 39°21' W 028°16'612.8
2017-Sep-15 16:30N 39°17' W 028°23'612.8
2017-Sep-15 16:00N 39°14' W 028°30'713.1
2017-Sep-15 15:30N 39°10' W 028°36'613.0
2017-Sep-15 15:00N 39°06' W 028°43'713.1
2017-Sep-15 14:30N 39°02' W 028°50'713.4
2017-Sep-15 14:01N 38°58' W 028°57'713.6
2017-Sep-15 13:30N 38°54' W 029°04'713.3
2017-Sep-15 13:00N 38°50' W 029°11'713.1
2017-Sep-15 12:31N 38°46' W 029°18'713.1
2017-Sep-15 12:00N 38°42' W 029°24'713.0
2017-Sep-15 11:30N 38°38' W 029°31'713.2
2017-Sep-15 11:00N 38°35' W 029°38'612.6
2017-Sep-15 10:30N 38°31' W 029°44'713.1
2017-Sep-15 10:00N 38°27' W 029°51'1010.5
2017-Sep-15 09:03N 38°21' W 030°01'012.3
2017-Sep-15 09:00N 38°21' W 030°02'612.8
2017-Sep-15 08:30N 38°16' W 030°08'713.0
2017-Sep-15 08:01N 38°12' W 030°14'713.1
2017-Sep-15 07:30N 38°08' W 030°21'612.8
2017-Sep-15 07:00N 38°03' W 030°26'812.7
2017-Sep-15 06:24N 37°58' W 030°33'912.7
2017-Sep-15 05:40N 37°52' W 030°42'213.1
2017-Sep-15 05:30N 37°50' W 030°44'612.5
2017-Sep-15 05:00N 37°46' W 030°50'  
Track history (hours):
 
Tides and Currents Weather Stations Pressure Air Temp Water Temp Dewpoint Dewpoint Depression Visibility Wind Speed Wind Dir Waves Ship Positions

Iraklis

Last reported at 2017-Sep-24 18:14 UTC. Time now 2017-Sep-24 19:24 UTC.
Position N 53°54' E 007°51'.

Length 180 m; draft 9.3 m.

Type: Cargo ship. MMSI: 636016421.

Date/timePositionNaut miles runAvg speedWind from/ knotsBaromVisibWave heightAir tempDewpointWater temp
2017-Sep-24 18:14N 53°54' E 007°51'0 0.0
2017-Sep-24 17:59N 53°54' E 007°51'0 0.0
2017-Sep-24 17:14N 53°54' E 007°51'0 0.0
2017-Sep-24 16:59N 53°54' E 007°51'0 0.0
2017-Sep-24 16:26N 53°54' E 007°51'0 0.0
2017-Sep-24 15:59N 53°54' E 007°51'0 0.0
2017-Sep-24 15:29N 53°54' E 007°51'0 0.0
2017-Sep-24 14:56N 53°54' E 007°51'0 0.2
2017-Sep-24 14:11N 53°54' E 007°51'0 0.2
2017-Sep-24 13:41N 53°54' E 007°51'0 0.1
2017-Sep-24 13:26N 53°54' E 007°51'0 0.0
2017-Sep-24 12:56N 53°54' E 007°51'0 0.0
2017-Sep-24 12:17N 53°54' E 007°51'0 0.0
2017-Sep-24 07:08N 53°54' E 007°51'0 0.0
2017-Sep-24 06:59N 53°54' E 007°51'0 0.0
2017-Sep-24 06:29N 53°54' E 007°51'0 0.0
2017-Sep-24 05:59N 53°54' E 007°51'0 0.0
2017-Sep-24 05:26N 53°54' E 007°51'0 0.0
2017-Sep-24 04:59N 53°54' E 007°51'0 0.0
2017-Sep-24 04:26N 53°54' E 007°51'0 0.0
2017-Sep-24 03:56N 53°54' E 007°51'0 0.0
2017-Sep-24 03:17N 53°54' E 007°51'0 0.0
2017-Sep-24 02:59N 53°54' E 007°51'0 0.0
2017-Sep-24 02:29N 53°54' E 007°51'0 0.1
2017-Sep-24 01:59N 53°54' E 007°51'0 0.3
2017-Sep-24 01:29N 53°54' E 007°51'0 0.1
2017-Sep-24 00:32N 53°54' E 007°51'0 0.1
2017-Sep-24 00:26N 53°54' E 007°51'0 0.0
2017-Sep-23 23:59N 53°54' E 007°51'0 0.0
2017-Sep-23 23:29N 53°54' E 007°51'0 0.0
2017-Sep-23 22:59N 53°54' E 007°51'0 0.0
2017-Sep-23 22:29N 53°54' E 007°51'0 0.0
2017-Sep-23 21:59N 53°54' E 007°51'0 0.0
2017-Sep-23 21:20N 53°54' E 007°51'0 0.0
2017-Sep-23 20:53N 53°54' E 007°51'0 0.0
2017-Sep-22 01:59N 53°54' E 007°51'0 0.1
2017-Sep-22 01:29N 53°54' E 007°51'0 0.1
2017-Sep-22 00:20N 53°54' E 007°51'0 0.1
2017-Sep-21 23:08N 53°54' E 007°51'0 0.0
2017-Sep-21 19:44N 53°54' E 007°51'0 0.4
2017-Sep-21 19:29N 53°54' E 007°51'0 0.3
2017-Sep-21 18:50N 53°54' E 007°51'0 0.1
2017-Sep-21 18:29N 53°54' E 007°51'0 0.0
2017-Sep-21 17:56N 53°54' E 007°51'0 0.0
2017-Sep-21 17:26N 53°54' E 007°51'0 0.0
2017-Sep-21 16:59N 53°54' E 007°51'0 0.0
2017-Sep-21 16:29N 53°54' E 007°51'0 0.0
2017-Sep-21 15:59N 53°54' E 007°51'0 0.0
2017-Sep-21 15:20N 53°54' E 007°51'0 0.0
2017-Sep-21 14:47N 53°54' E 007°51'0 0.0
2017-Sep-21 14:26N 53°54' E 007°51'0 0.0
2017-Sep-21 13:56N 53°54' E 007°51'0 0.1
2017-Sep-21 10:50N 53°54' E 007°51'0 0.0
2017-Sep-21 10:29N 53°54' E 007°51'0 0.0
2017-Sep-21 09:20N 53°54' E 007°51'0 0.3
2017-Sep-21 09:00N 53°54' E 007°51'2 3.4
2017-Sep-21 08:30N 53°53' E 007°49'3 6.8
2017-Sep-21 08:00N 53°53' E 007°43'4 7.7
2017-Sep-21 07:30N 53°54' E 007°36'6 7.7
2017-Sep-21 06:43N 53°54' E 007°26'2 8.9
2017-Sep-21 06:29N 53°53' E 007°23'6 9.7
2017-Sep-21 05:55N 53°52' E 007°14'510.3
2017-Sep-21 05:27N 53°51' E 007°06'6 9.9
2017-Sep-21 04:52N 53°49' E 006°56'5211.5
2017-Sep-21 00:19N 53°35' E 005°32'412.1
2017-Sep-20 23:59N 53°34' E 005°25'612.0
2017-Sep-20 23:30N 53°32' E 005°16'612.6
2017-Sep-20 23:00N 53°30' E 005°06'612.8
2017-Sep-20 22:30N 53°28' E 004°56'612.7
2017-Sep-20 22:00N 53°26' E 004°46'1412.4
2017-Sep-20 20:53N 53°14' E 004°34'512.8
2017-Sep-20 20:28N 53°09' E 004°30'1312.8
2017-Sep-20 19:27N 52°57' E 004°20'713.1
2017-Sep-20 18:53N 52°51' E 004°14'513.3
2017-Sep-20 18:29N 52°47' E 004°08'713.6
2017-Sep-20 17:59N 52°42' E 004°01'1313.8
2017-Sep-20 17:05N 52°32' E 003°47'114.0
2017-Sep-20 16:59N 52°31' E 003°45'714.1
2017-Sep-20 16:29N 52°26' E 003°38'6014.8
2017-Sep-20 12:23N 51°42' E 002°30'1814.4
2017-Sep-20 11:08N 51°29' E 002°11'213.9
2017-Sep-20 11:00N 51°27' E 002°09'713.7
2017-Sep-20 10:30N 51°22' E 002°02'713.1
2017-Sep-20 10:00N 51°17' E 001°55'612.4
2017-Sep-20 09:30N 51°13' E 001°48'611.3
2017-Sep-20 09:00N 51°08' E 001°43'510.2
2017-Sep-20 08:30N 51°04' E 001°38'5 9.1
2017-Sep-20 08:00N 51°01' E 001°33'5 9.4
2017-Sep-20 07:30N 50°57' E 001°28'53 9.8
2017-Sep-20 02:04N 50°24' E 000°23'411.2
2017-Sep-20 01:44N 50°23' E 000°18'311.2
2017-Sep-20 01:30N 50°22' E 000°14'811.4
2017-Sep-20 00:49N 50°20' E 000°02'3712.5
2017-Sep-19 21:51N 50°10' W 000°54'514.8
2017-Sep-19 21:30N 50°08' W 001°02'815.4
2017-Sep-19 21:00N 50°07' W 001°13'815.9
2017-Sep-19 20:30N 50°04' W 001°25'816.4
2017-Sep-19 20:00N 50°02' W 001°38'816.8
2017-Sep-19 19:31N 50°00' W 001°50'3615.8
2017-Sep-19 17:16N 49°51' W 002°44'414.4
2017-Sep-19 17:00N 49°50' W 002°49'914.0
2017-Sep-19 16:21N 49°47' W 003°02'513.9
2017-Sep-19 16:00N 49°45' W 003°09'713.8
2017-Sep-19 15:30N 49°42' W 003°19'713.4
2017-Sep-19 14:58N 49°39' W 003°29'1013.1
2017-Sep-19 14:12N 49°36' W 003°44'2412.6
2017-Sep-19 12:20N 49°27' W 004°18'3111.8
2017-Sep-19 09:41N 49°15' W 005°02'  
2017-Sep-15 20:25N 39°48' W 027°29'613.4
2017-Sep-15 20:00N 39°45' W 027°35'813.4
2017-Sep-15 19:26N 39°40' W 027°43'613.3
2017-Sep-15 19:00N 39°37' W 027°49'713.4
2017-Sep-15 18:30N 39°33' W 027°56'713.2
2017-Sep-15 18:00N 39°29' W 028°03'613.1
2017-Sep-15 17:30N 39°25' W 028°09'713.0
2017-Sep-15 17:00N 39°21' W 028°16'612.8
2017-Sep-15 16:30N 39°17' W 028°23'612.8
2017-Sep-15 16:00N 39°14' W 028°30'713.1
2017-Sep-15 15:30N 39°10' W 028°36'613.0
2017-Sep-15 15:00N 39°06' W 028°43'713.1
2017-Sep-15 14:30N 39°02' W 028°50'713.4
2017-Sep-15 14:01N 38°58' W 028°57'713.6
2017-Sep-15 13:30N 38°54' W 029°04'713.3
2017-Sep-15 13:00N 38°50' W 029°11'713.1
2017-Sep-15 12:31N 38°46' W 029°18'713.1
2017-Sep-15 12:00N 38°42' W 029°24'713.0
2017-Sep-15 11:30N 38°38' W 029°31'713.2
2017-Sep-15 11:00N 38°35' W 029°38'612.6
2017-Sep-15 10:30N 38°31' W 029°44'713.1
2017-Sep-15 10:00N 38°27' W 029°51'1010.5
2017-Sep-15 09:03N 38°21' W 030°01'012.3
2017-Sep-15 09:00N 38°21' W 030°02'612.8
2017-Sep-15 08:30N 38°16' W 030°08'713.0
2017-Sep-15 08:01N 38°12' W 030°14'713.1
2017-Sep-15 07:30N 38°08' W 030°21'612.8
2017-Sep-15 07:00N 38°03' W 030°26'812.7
2017-Sep-15 06:24N 37°58' W 030°33'912.7
2017-Sep-15 05:40N 37°52' W 030°42'213.1
2017-Sep-15 05:30N 37°50' W 030°44'612.5
2017-Sep-15 05:00N 37°46' W 030°50'  

Dump ship's entire track history